No particular awareness of the weather is required.    There are no Weather-warnings


Meteo18 Weather Cam more information Meteo18 Weather Cam


Thunder radar more information blitzortung!


Rain radar more information rain snow radar


Visit our other weather sites:

Template documentation
and downloads

And another site



Weather Underground History page Text

Daily Summary for March 28, 2017 Units:  English    Metric   Both
« Previous Day
Next Day »
Daily Weekly Monthly Yearly Custom
  High: Low: Average:
Temperature: TemperatureC °F 7.7 °F 12.5 °F
Dew Point: DewpointC °F 4.3 °F 7.1 °F
Humidity: Humidity % 51 % 70 %
Wind Speed: WindSpeedKMH mph 0.0 mph 4.6 mph
Wind Gust: WindSpeedGustKMH mph - -
Wind:- - WSW
Pressure: PressurehPa in 1020.9 in -
Precipitation: 0.0 in    
Historical Graphs
 
 
Tabular Data for March 28, 2017
Time Temperature Dew Point Pressure Wind Wind Speed Wind Gust Humidity Rainfall Rate (Hourly)
TemperatureC °F DewpointC °F PressurehPa in Calm     Humidity % HourlyPrecipMM in
00:02 10.3 °F 5.5 °F 1020.9 in WNW 3.2 mph 3.2 mph 72 % 0.0 in
00:12 10.3 °F 5.3 °F 1020.9 in WNW 1.6 mph 3.2 mph 71 % 0.0 in
00:17 10.2 °F 5.4 °F 1021.2 in WNW 1.6 mph 3.2 mph 72 % 0.0 in
00:22 10.0 °F 5.2 °F 1021.2 in WNW 3.2 mph 3.2 mph 72 % 0.0 in
00:32 10.1 °F 5.1 °F 1021.2 in WNW 3.2 mph 4.8 mph 71 % 0.0 in
00:37 9.9 °F 5.1 °F 1021.2 in WNW 1.6 mph 4.8 mph 72 % 0.0 in
00:42 9.7 °F 5.1 °F 1021.2 in WNW 1.6 mph 4.8 mph 73 % 0.0 in
00:52 9.6 °F 5.0 °F 1021.2 in Calm   3.2 mph 73 % 0.0 in
01:02 9.3 °F 4.9 °F 1021.2 in Calm   1.6 mph 74 % 0.0 in
01:12 9.6 °F 4.8 °F 1021.2 in Calm   1.6 mph 72 % 0.0 in
01:17 9.6 °F 4.8 °F 1021.2 in Calm   1.6 mph 72 % 0.0 in
01:22 8.9 °F 4.7 °F 1021.2 in West 1.6 mph 1.6 mph 75 % 0.0 in
01:32 8.9 °F 4.7 °F 1021.6 in Calm   3.2 mph 75 % 0.0 in
01:37 9.2 °F 4.8 °F 1021.6 in Calm   4.8 mph 74 % 0.0 in
01:42 9.4 °F 4.8 °F 1021.6 in NNE 4.8 mph 4.8 mph 73 % 0.0 in
01:47 9.2 °F 4.8 °F 1021.6 in Calm   4.8 mph 74 % 0.0 in
01:52 8.8 °F 4.6 °F 1021.6 in Calm   4.8 mph 75 % 0.0 in
01:57 8.8 °F 4.6 °F 1021.6 in Calm   4.8 mph 75 % 0.0 in
02:02 8.4 °F 4.4 °F 1021.6 in Calm   4.8 mph 76 % 0.0 in
02:07 8.8 °F 4.8 °F 1021.6 in NE 4.8 mph 4.8 mph 76 % 0.0 in
02:12 9.1 °F 4.7 °F 1021.6 in ENE 3.2 mph 3.2 mph 74 % 0.0 in
02:17 8.9 °F 4.5 °F 1021.6 in Calm   6.4 mph 74 % 0.0 in
02:22 8.3 °F 4.3 °F 1021.9 in West 3.2 mph 6.4 mph 76 % 0.0 in
02:32 7.7 °F 4.3 °F 1022.2 in SW 6.4 mph 6.4 mph 79 % 0.0 in
02:37 8.2 °F 4.8 °F 1022.2 in SW 4.8 mph 17.7 mph 79 % 0.0 in
02:42 8.7 °F 4.9 °F 1022.2 in SE 1.6 mph 17.7 mph 77 % 0.0 in
02:47 8.7 °F 4.9 °F 1022.2 in Calm   17.7 mph 77 % 0.0 in
02:52 8.7 °F 4.7 °F 1022.2 in Calm   11.3 mph 76 % 0.0 in
02:57 8.6 °F 5.0 °F 1022.2 in West 1.6 mph 4.8 mph 78 % 0.0 in
03:02 9.1 °F 5.1 °F 1021.9 in WNW 1.6 mph 3.2 mph 76 % 0.0 in
03:12 8.6 °F 4.8 °F 1022.2 in NE 3.2 mph 3.2 mph 77 % 0.0 in
03:17 8.4 °F 4.8 °F 1022.2 in Calm   3.2 mph 78 % 0.0 in
03:22 8.4 °F 5.0 °F 1022.2 in ESE 1.6 mph 3.2 mph 79 % 0.0 in
03:32 8.4 °F 4.8 °F 1022.2 in Calm   3.2 mph 78 % 0.0 in
03:37 8.4 °F 5.0 °F 1022.2 in Calm   1.6 mph 79 % 0.0 in
03:42 8.3 °F 4.9 °F 1022.2 in Calm   1.6 mph 79 % 0.0 in
03:47 8.2 °F 5.0 °F 1022.2 in Calm     80 % 0.0 in
03:52 8.1 °F 4.9 °F 1022.2 in Calm     80 % 0.0 in
03:57 8.1 °F 4.9 °F 1022.2 in Calm     80 % 0.0 in
04:02 8.0 °F 4.8 °F 1022.2 in Calm   1.6 mph 80 % 0.0 in
04:12 7.9 °F 4.8 °F 1022.2 in Calm   1.6 mph 81 % 0.0 in
04:17 7.9 °F 4.8 °F 1022.2 in South 1.6 mph 1.6 mph 81 % 0.0 in
04:22 7.8 °F 4.7 °F 1022.2 in Calm   3.2 mph 81 % 0.0 in
04:27 7.7 °F 4.8 °F 1022.6 in Calm   3.2 mph 82 % 0.0 in
04:32 7.8 °F 5.1 °F 1022.6 in SSW 1.6 mph 3.2 mph 83 % 0.0 in
04:37 8.0 °F 5.3 °F 1022.6 in SSW 4.8 mph 4.8 mph 83 % 0.0 in
04:42 8.4 °F 5.5 °F 1022.6 in SW 4.8 mph 4.8 mph 82 % 0.0 in
04:47 8.8 °F 5.7 °F 1022.6 in SW 4.8 mph 11.3 mph 81 % 0.0 in
04:52 8.9 °F 5.8 °F 1022.6 in SW 3.2 mph 11.3 mph 81 % 0.0 in
04:57 9.1 °F 5.8 °F 1022.6 in Calm   11.3 mph 80 % 0.0 in
05:02 8.8 °F 5.5 °F 1022.6 in Calm   9.7 mph 80 % 0.0 in
05:12 8.3 °F 5.4 °F 1022.9 in Calm   3.2 mph 82 % 0.0 in
05:17 8.2 °F 5.3 °F 1022.9 in Calm   3.2 mph 82 % 0.0 in
05:27 8.1 °F 5.6 °F 1022.9 in SSW 1.6 mph 1.6 mph 84 % 0.0 in
05:32 8.2 °F 5.7 °F 1022.9 in South 1.6 mph 6.4 mph 84 % 0.0 in
05:42 8.8 °F 6.1 °F 1022.9 in South 3.2 mph 6.4 mph 83 % 0.0 in
05:52 9.2 °F 6.3 °F 1022.9 in SW 4.8 mph 11.3 mph 82 % 0.0 in
06:02 9.7 °F 6.6 °F 1022.9 in West 1.6 mph 11.3 mph 81 % 0.0 in
06:12 9.9 °F 6.8 °F 1023.2 in WSW 1.6 mph 11.3 mph 81 % 0.0 in
06:17 9.8 °F 6.7 °F 1023.2 in SW 1.6 mph 11.3 mph 81 % 0.0 in
06:22 9.7 °F 6.6 °F 1023.2 in SE 1.6 mph 4.8 mph 81 % 0.0 in
06:32 9.3 °F 6.6 °F 1023.2 in Calm   4.8 mph 83 % 0.0 in
06:37 9.2 °F 6.5 °F 1023.2 in Calm   3.2 mph 83 % 0.0 in
06:42 9.1 °F 6.5 °F 1023.2 in Calm   3.2 mph 84 % 0.0 in
06:47 9.0 °F 6.6 °F 1023.2 in SSW 4.8 mph 4.8 mph 85 % 0.0 in
06:52 9.2 °F 6.6 °F 1023.2 in SW 4.8 mph 8.0 mph 84 % 0.0 in
07:02 9.8 °F 6.7 °F 1023.2 in SW 3.2 mph 8.0 mph 81 % 0.0 in
07:07 10.0 °F 6.7 °F 1023.2 in WSW 1.6 mph 8.0 mph 80 % 0.0 in
07:12 10.1 °F 6.6 °F 1023.2 in Calm   6.4 mph 79 % 0.0 in
07:17 10.1 °F 6.6 °F 1023.2 in Calm   6.4 mph 79 % 0.0 in
07:22 9.8 °F 6.5 °F 1023.6 in Calm   3.2 mph 80 % 0.0 in
07:32 9.0 °F 6.3 °F 1023.6 in SSE 1.6 mph 4.8 mph 83 % 0.0 in
07:42 8.3 °F 6.1 °F 1023.6 in SW 1.6 mph 4.8 mph 86 % 0.0 in
07:52 8.6 °F 6.0 °F 1023.9 in Calm   4.8 mph 84 % 0.0 in
07:57 8.4 °F 5.9 °F 1023.9 in SSW 1.6 mph 4.8 mph 84 % 0.0 in
08:02 8.2 °F 5.7 °F 1023.9 in SW 1.6 mph 4.8 mph 84 % 0.0 in
08:07 7.9 °F 5.5 °F 1023.9 in Calm   4.8 mph 85 % 0.0 in
08:12 7.8 °F 5.6 °F 1023.9 in Calm   3.2 mph 86 % 0.0 in
08:17 7.8 °F 5.8 °F 1024.3 in Calm   3.2 mph 87 % 0.0 in
08:22 8.0 °F 6.0 °F 1024.3 in Calm     87 % 0.0 in
08:32 8.2 °F 6.2 °F 1024.3 in ESE 1.6 mph 3.2 mph 87 % 0.0 in
08:37 8.3 °F 6.3 °F 1024.6 in Calm   3.2 mph 87 % 0.0 in
08:42 8.7 °F 6.7 °F 1024.6 in Calm   3.2 mph 87 % 0.0 in
08:52 9.3 °F 6.9 °F 1024.6 in Calm   1.6 mph 85 % 0.0 in
08:57 9.3 °F 6.7 °F 1024.6 in Calm   1.6 mph 84 % 0.0 in
09:02 9.7 °F 7.3 °F 1024.6 in Calm     85 % 0.0 in
09:12 10.4 °F 7.3 °F 1024.9 in Calm     81 % 0.0 in
09:22 10.6 °F 7.8 °F 1024.9 in ESE 3.2 mph   83 % 0.0 in
09:32 11.9 °F 8.9 °F 1024.9 in Calm   4.8 mph 82 % 0.0 in
09:42 12.4 °F 8.5 °F 1024.9 in West 9.7 mph 12.9 mph 77 % 0.0 in
09:47 12.4 °F 8.3 °F 1024.9 in West 8.0 mph 12.9 mph 76 % 0.0 in
09:57 12.6 °F 8.7 °F 1025.3 in West 3.2 mph 16.1 mph 77 % 0.0 in
10:02 12.7 °F 8.6 °F 1025.3 in SW 4.8 mph 16.1 mph 76 % 0.0 in
10:12 12.9 °F 8.6 °F 1025.3 in SW 3.2 mph 11.3 mph 75 % 0.0 in
10:17 13.1 °F 8.8 °F 1025.3 in SSW 3.2 mph 11.3 mph 75 % 0.0 in
10:22 13.1 °F 8.6 °F 1025.3 in SW 3.2 mph 11.3 mph 74 % 0.0 in
10:27 13.1 °F 8.6 °F 1025.3 in WSW 6.4 mph 11.3 mph 74 % 0.0 in
10:32 13.2 °F 8.9 °F 1025.3 in West 1.6 mph 9.7 mph 75 % 0.0 in
10:42 13.7 °F 8.9 °F 1025.6 in West 6.4 mph 8.0 mph 73 % 0.0 in
10:47 13.8 °F 8.6 °F 1025.6 in West 14.5 mph 14.5 mph 71 % 0.0 in
10:52 13.6 °F 8.4 °F 1025.6 in WSW 11.3 mph 16.1 mph 71 % 0.0 in
10:57 13.6 °F 8.2 °F 1025.6 in WSW 4.8 mph 16.1 mph 70 % 0.0 in
11:02 13.7 °F 8.5 °F 1025.6 in West 8.0 mph 17.7 mph 71 % 0.0 in
11:12 13.8 °F 9.0 °F 1026.0 in WSW 6.4 mph 14.5 mph 73 % 0.0 in
11:17 13.9 °F 9.3 °F 1026.0 in South 3.2 mph 14.5 mph 74 % 0.0 in
11:22 14.0 °F 8.6 °F 1026.0 in WSW 6.4 mph 11.3 mph 70 % 0.0 in
11:27 14.0 °F 8.8 °F 1026.0 in WSW 4.8 mph 11.3 mph 71 % 0.0 in
11:32 14.1 °F 8.7 °F 1026.0 in West 9.7 mph 11.3 mph 70 % 0.0 in
11:37 14.2 °F 8.6 °F 1026.0 in WSW 11.3 mph 11.3 mph 69 % 0.0 in
11:42 14.3 °F 8.3 °F 1026.0 in SW 3.2 mph 16.1 mph 67 % 0.0 in
11:52 14.4 °F 8.1 °F 1026.0 in SW 8.0 mph 16.1 mph 66 % 0.0 in
11:57 14.6 °F 8.5 °F 1026.0 in WSW 12.9 mph 16.1 mph 67 % 0.0 in
12:02 14.8 °F 8.5 °F 1026.0 in West 4.8 mph 14.5 mph 66 % 0.0 in
12:12 15.1 °F 8.8 °F 1026.0 in SE 3.2 mph 14.5 mph 66 % 0.0 in
12:17 15.4 °F 9.7 °F 1026.3 in West 4.8 mph 14.5 mph 69 % 0.0 in
12:22 16.1 °F 9.1 °F 1026.0 in West 9.7 mph 11.3 mph 63 % 0.0 in
12:32 15.8 °F 8.3 °F 1026.3 in WNW 9.7 mph 11.3 mph 61 % 0.0 in
12:37 15.8 °F 9.0 °F 1026.3 in West 9.7 mph 14.5 mph 64 % 0.0 in
12:42 15.7 °F 8.7 °F 1026.3 in WSW 9.7 mph 14.5 mph 63 % 0.0 in
12:47 15.3 °F 8.8 °F 1026.3 in West 12.9 mph 14.5 mph 65 % 0.0 in
12:52 15.3 °F 9.2 °F 1026.3 in WNW 9.7 mph 20.9 mph 67 % 0.0 in
13:02 15.4 °F 8.9 °F 1026.3 in West 11.3 mph 20.9 mph 65 % 0.0 in
13:12 15.3 °F 8.3 °F 1026.3 in WNW 14.5 mph 24.1 mph 63 % 0.0 in
13:17 15.1 °F 8.3 °F 1026.3 in WNW 11.3 mph 24.1 mph 64 % 0.0 in
13:22 15.1 °F 8.3 °F 1026.3 in WNW 6.4 mph 17.7 mph 64 % 0.0 in
13:27 15.4 °F 8.9 °F 1026.3 in NNW 9.7 mph 17.7 mph 65 % 0.0 in
13:32 15.7 °F 8.4 °F 1026.3 in West 8.0 mph 16.1 mph 62 % 0.0 in
13:42 15.7 °F 8.9 °F 1026.3 in WNW 9.7 mph 16.1 mph 64 % 0.0 in
13:52 15.8 °F 9.0 °F 1026.3 in WSW 12.9 mph 20.9 mph 64 % 0.0 in
14:02 15.8 °F 8.3 °F 1026.3 in WSW 9.7 mph 19.3 mph 61 % 0.0 in
14:12 15.7 °F 8.4 °F 1026.3 in WSW 3.2 mph 20.9 mph 62 % 0.0 in
14:17 15.7 °F 8.2 °F 1026.3 in West 9.7 mph 20.9 mph 61 % 0.0 in
14:22 15.8 °F 7.8 °F 1026.3 in West 12.9 mph 19.3 mph 59 % 0.0 in
14:32 16.3 °F 9.0 °F 1026.0 in WSW 12.9 mph 19.3 mph 62 % 0.0 in
14:37 16.4 °F 8.4 °F 1026.3 in SW 9.7 mph 17.7 mph 59 % 0.0 in
14:47 16.9 °F 9.1 °F 1026.0 in WSW 8.0 mph 17.7 mph 60 % 0.0 in
14:52 17.1 °F 8.0 °F 1026.0 in WSW 9.7 mph 17.7 mph 55 % 0.0 in
14:57 16.6 °F 8.6 °F 1026.0 in WSW 17.7 mph 24.1 mph 59 % 0.0 in
15:02 16.2 °F 8.4 °F 1026.0 in West 8.0 mph 24.1 mph 60 % 0.0 in
15:12 16.5 °F 8.2 °F 1026.0 in South 8.0 mph 24.1 mph 58 % 0.0 in
15:17 16.5 °F 8.5 °F 1026.0 in WSW 8.0 mph 20.9 mph 59 % 0.0 in
15:22 16.5 °F 8.7 °F 1026.0 in WSW 4.8 mph 20.9 mph 60 % 0.0 in
15:32 16.8 °F 8.2 °F 1026.0 in SW 14.5 mph 19.3 mph 57 % 0.0 in
15:42 17.3 °F 8.2 °F 1026.0 in South 1.6 mph 20.9 mph 55 % 0.0 in
15:52 17.3 °F 8.7 °F 1026.0 in SW 17.7 mph 22.5 mph 57 % 0.0 in
15:57 17.4 °F 8.8 °F 1026.0 in SW 11.3 mph 25.7 mph 57 % 0.0 in
16:02 17.3 °F 8.4 °F 1026.0 in West 9.7 mph 25.7 mph 56 % 0.0 in
16:12 17.3 °F 8.4 °F 1026.0 in SW 14.5 mph 20.9 mph 56 % 0.0 in
16:17 17.2 °F 8.3 °F 1026.0 in West 11.3 mph 22.5 mph 56 % 0.0 in
16:22 17.4 °F 8.5 °F 1026.0 in West 9.7 mph 22.5 mph 56 % 0.0 in
16:27 17.4 °F 8.3 °F 1026.0 in WSW 17.7 mph 22.5 mph 55 % 0.0 in
16:32 17.3 °F 8.7 °F 1026.0 in WSW 8.0 mph 22.5 mph 57 % 0.0 in
16:37 17.4 °F 8.8 °F 1026.0 in WSW 17.7 mph 22.5 mph 57 % 0.0 in
16:42 17.2 °F 8.9 °F 1026.0 in West 9.7 mph 22.5 mph 58 % 0.0 in
16:47 17.1 °F 8.3 °F 1026.0 in WSW 8.0 mph 22.5 mph 56 % 0.0 in
16:52 17.1 °F 8.3 °F 1026.0 in West 12.9 mph 20.9 mph 56 % 0.0 in
16:57 17.3 °F 8.4 °F 1026.0 in SW 20.9 mph 22.5 mph 56 % 0.0 in
17:02 17.2 °F 8.3 °F 1026.0 in West 11.3 mph 22.5 mph 56 % 0.0 in
17:12 17.1 °F 8.8 °F 1026.0 in West 11.3 mph 25.7 mph 58 % 0.0 in
17:17 17.2 °F 9.1 °F 1026.0 in WNW 8.0 mph 25.7 mph 59 % 0.0 in
17:22 17.2 °F 8.3 °F 1025.6 in West 12.9 mph 19.3 mph 56 % 0.0 in
17:27 17.2 °F 8.1 °F 1025.6 in WSW 12.9 mph 19.3 mph 55 % 0.0 in
17:32 17.3 °F 8.2 °F 1026.0 in West 6.4 mph 19.3 mph 55 % 0.0 in
17:42 17.3 °F 8.4 °F 1025.6 in WSW 6.4 mph 19.3 mph 56 % 0.0 in
17:52 17.7 °F 7.4 °F 1025.6 in SW 16.1 mph 19.3 mph 51 % 0.0 in
17:57 17.6 °F 7.9 °F 1026.0 in WSW 9.7 mph 17.7 mph 53 % 0.0 in
18:02 17.6 °F 7.9 °F 1026.0 in West 11.3 mph 17.7 mph 53 % 0.0 in
18:12 17.6 °F 8.2 °F 1026.0 in West 6.4 mph 17.7 mph 54 % 0.0 in
18:17 17.7 °F 8.3 °F 1026.0 in West 9.7 mph 16.1 mph 54 % 0.0 in
18:22 17.6 °F 7.9 °F 1026.0 in West 11.3 mph 16.1 mph 53 % 0.0 in
18:32 17.5 °F 7.8 °F 1026.0 in WNW 6.4 mph 16.1 mph 53 % 0.0 in
18:37 17.5 °F 7.8 °F 1026.0 in WSW 11.3 mph 16.1 mph 53 % 0.0 in
18:42 17.5 °F 8.1 °F 1026.0 in SW 8.0 mph 16.1 mph 54 % 0.0 in
18:47 17.6 °F 7.9 °F 1026.0 in WSW 9.7 mph 17.7 mph 53 % 0.0 in
18:52 17.6 °F 8.2 °F 1026.0 in WNW 6.4 mph 17.7 mph 54 % 0.0 in
18:57 17.6 °F 7.9 °F 1026.0 in WSW 11.3 mph 16.1 mph 53 % 0.0 in
19:02 17.4 °F 8.0 °F 1026.0 in WSW 6.4 mph 16.1 mph 54 % 0.0 in
19:12 17.4 °F 8.0 °F 1026.0 in SSW 6.4 mph 17.7 mph 54 % 0.0 in
19:17 17.4 °F 8.0 °F 1026.0 in WSW 3.2 mph 17.7 mph 54 % 0.0 in
19:22 17.4 °F 8.0 °F 1026.3 in West 6.4 mph 14.5 mph 54 % 0.0 in
19:27 17.2 °F 8.1 °F 1026.3 in SSE 3.2 mph 9.7 mph 55 % 0.0 in
19:32 17.1 °F 8.0 °F 1026.3 in West 4.8 mph 11.3 mph 55 % 0.0 in
19:42 16.9 °F 8.1 °F 1026.3 in SW 8.0 mph 11.3 mph 56 % 0.0 in
19:47 16.8 °F 8.2 °F 1026.3 in SW 6.4 mph 14.5 mph 57 % 0.0 in
19:52 16.6 °F 8.0 °F 1026.3 in WSW 4.8 mph 9.7 mph 57 % 0.0 in
19:57 16.3 °F 8.0 °F 1026.3 in SW 4.8 mph 9.7 mph 58 % 0.0 in
20:02 16.2 °F 7.9 °F 1026.3 in SW 3.2 mph 9.7 mph 58 % 0.0 in
20:12 15.9 °F 7.9 °F 1026.6 in WSW 6.4 mph 9.7 mph 59 % 0.0 in
20:17 15.7 °F 7.7 °F 1026.6 in West 3.2 mph 8.0 mph 59 % 0.0 in
20:22 15.5 °F 7.8 °F 1026.6 in WSW 4.8 mph 8.0 mph 60 % 0.0 in
20:32 15.2 °F 7.7 °F 1026.6 in SW 4.8 mph 9.7 mph 61 % 0.0 in
20:42 14.9 °F 7.7 °F 1026.6 in WSW 1.6 mph 9.7 mph 62 % 0.0 in
20:47 14.7 °F 7.7 °F 1027.0 in West 3.2 mph 8.0 mph 63 % 0.0 in
20:52 14.6 °F 7.6 °F 1027.0 in West 3.2 mph 8.0 mph 63 % 0.0 in
21:02 14.4 °F 7.7 °F 1027.0 in West 3.2 mph 4.8 mph 64 % 0.0 in
21:12 13.9 °F 7.7 °F 1027.0 in West 1.6 mph 4.8 mph 66 % 0.0 in
21:17 13.7 °F 7.7 °F 1027.0 in West 1.6 mph 4.8 mph 67 % 0.0 in
21:22 13.6 °F 7.8 °F 1027.0 in West 1.6 mph 3.2 mph 68 % 0.0 in
21:32 13.4 °F 7.6 °F 1027.3 in Calm   1.6 mph 68 % 0.0 in
21:42 13.0 °F 7.4 °F 1027.7 in Calm   1.6 mph 69 % 0.0 in
21:52 12.9 °F 7.6 °F 1027.7 in Calm     70 % 0.0 in
21:57 13.0 °F 7.7 °F 1027.7 in Calm     70 % 0.0 in
22:02 13.0 °F 7.7 °F 1027.7 in Calm     70 % 0.0 in
22:12 12.7 °F 7.6 °F 1027.7 in Calm     71 % 0.0 in
22:17 12.6 °F 7.5 °F 1027.7 in West 1.6 mph 1.6 mph 71 % 0.0 in
22:22 12.6 °F 7.5 °F 1027.7 in West 1.6 mph 1.6 mph 71 % 0.0 in
22:27 12.4 °F 7.5 °F 1027.7 in Calm   3.2 mph 72 % 0.0 in
22:32 12.2 °F 7.3 °F 1027.7 in Calm   3.2 mph 72 % 0.0 in
22:42 11.4 °F 7.1 °F 1028.0 in West 1.6 mph 1.6 mph 75 % 0.0 in
22:47 11.3 °F 7.2 °F 1028.0 in West 1.6 mph 1.6 mph 76 % 0.0 in
22:52 11.1 °F 7.0 °F 1028.0 in Calm   1.6 mph 76 % 0.0 in
22:57 11.0 °F 7.1 °F 1028.0 in Calm   1.6 mph 77 % 0.0 in
23:02 10.9 °F 7.0 °F 1028.0 in Calm   1.6 mph 77 % 0.0 in
23:12 10.8 °F 6.9 °F 1028.0 in Calm   1.6 mph 77 % 0.0 in
23:17 10.6 °F 6.9 °F 1028.0 in Calm   1.6 mph 78 % 0.0 in
23:22 10.5 °F 6.8 °F 1028.0 in Calm     78 % 0.0 in
23:32 10.1 °F 6.6 °F 1028.0 in Calm   1.6 mph 79 % 0.0 in
23:42 9.7 °F 6.6 °F 1028.0 in Calm     81 % 0.0 in
23:47 9.7 °F 6.8 °F 1028.0 in Calm     82 % 0.0 in
23:52 9.9 °F 7.0 °F 1028.0 in Calm     82 % 0.0 in
23:57 10.1 °F 7.0 °F 1028.0 in Calm   1.6 mph 81 % 0.0 in
Meteo18
Compliments of Weather Underground - 4 mb

Script developed by  Jim McMurry - jmcmurry@mwt.net Adapted for the template by  Wim van der Kuil - Leuven-Template.eu

You find our weather info also at:

European Weather Network

Weather Underground

Equipment we use:

Weather-station
Davis Vue

Weather-program
Meteobridge

Weather-server
Raspberry PI 2 B+

Provider
1 and 1

Davis Vue

Meteobridge

Raspberry PI 2 B+

1 and 1